createdAt,value
2023-02-16T00:00:51.336Z,16.92
2023-02-16T00:03:17.749Z,16.92
2023-02-16T00:05:44.404Z,16.90
2023-02-16T00:08:11.177Z,16.89
2023-02-16T00:10:37.530Z,16.87
2023-02-16T00:13:04.624Z,16.86
2023-02-16T00:15:30.882Z,16.86
2023-02-16T00:17:57.389Z,16.85
2023-02-16T00:20:23.716Z,16.84
2023-02-16T00:22:50.103Z,16.83
2023-02-16T00:25:16.350Z,16.80
2023-02-16T00:27:42.684Z,16.80
2023-02-16T00:30:09.061Z,16.79
2023-02-16T00:32:35.421Z,16.78
2023-02-16T00:35:01.717Z,16.77
2023-02-16T00:37:28.012Z,16.75
2023-02-16T00:39:54.295Z,16.76
2023-02-16T00:42:21.146Z,16.74
2023-02-16T00:44:47.473Z,16.73
2023-02-16T00:47:14.483Z,16.73
2023-02-16T00:49:40.867Z,16.71
2023-02-16T00:52:07.217Z,16.70
2023-02-16T00:54:33.513Z,16.68
2023-02-16T00:56:59.938Z,16.67
2023-02-16T00:59:26.314Z,16.66
2023-02-16T01:01:52.749Z,16.65
2023-02-16T01:04:19.221Z,16.64
2023-02-16T01:06:46.013Z,16.63
2023-02-16T01:09:12.274Z,16.61
2023-02-16T01:11:38.770Z,16.60
2023-02-16T01:14:05.138Z,16.59
2023-02-16T01:16:31.704Z,16.58
2023-02-16T01:18:58.090Z,16.57
2023-02-16T01:21:24.344Z,16.55
2023-02-16T01:23:50.623Z,16.54
2023-02-16T01:26:16.985Z,16.54
2023-02-16T01:28:43.678Z,16.53
2023-02-16T01:31:10.056Z,16.52
2023-02-16T01:33:36.630Z,16.50
2023-02-16T01:36:02.922Z,16.49
2023-02-16T01:38:29.236Z,16.48
2023-02-16T01:40:55.863Z,16.48
2023-02-16T01:43:22.158Z,16.47
2023-02-16T01:45:48.924Z,16.46
2023-02-16T01:48:15.398Z,16.44
2023-02-16T01:50:41.859Z,16.44
2023-02-16T01:53:09.713Z,16.44
2023-02-16T01:55:36.080Z,16.43
2023-02-16T01:58:02.575Z,16.41
2023-02-16T02:00:30.064Z,16.41
2023-02-16T02:02:56.586Z,16.38
2023-02-16T02:05:22.999Z,16.37
2023-02-16T02:07:49.332Z,16.36
2023-02-16T02:10:15.841Z,16.36
2023-02-16T02:12:46.004Z,16.35
2023-02-16T02:15:12.315Z,16.35
2023-02-16T02:17:39.016Z,16.34
2023-02-16T02:20:05.313Z,16.33
2023-02-16T02:22:31.578Z,16.32
2023-02-16T02:24:57.855Z,16.32
2023-02-16T02:27:24.162Z,16.31
2023-02-16T02:29:51.178Z,16.31
2023-02-16T02:32:17.943Z,16.30
2023-02-16T02:34:44.308Z,16.30
2023-02-16T02:37:10.708Z,16.33
2023-02-16T02:39:37.223Z,16.33
2023-02-16T02:42:03.828Z,16.32
2023-02-16T02:44:31.022Z,16.33
2023-02-16T02:46:58.264Z,16.34
2023-02-16T02:49:24.572Z,16.34
2023-02-16T02:51:50.942Z,16.35
2023-02-16T02:54:17.275Z,16.35
2023-02-16T02:56:43.804Z,16.35
2023-02-16T02:59:10.651Z,16.35
2023-02-16T03:01:37.116Z,16.35
2023-02-16T03:04:03.373Z,16.35
2023-02-16T03:06:29.680Z,16.34
2023-02-16T03:08:56.048Z,16.32
2023-02-16T03:11:23.516Z,16.30
2023-02-16T03:13:49.750Z,16.21
2023-02-16T03:16:16.212Z,16.30
2023-02-16T03:18:42.553Z,16.28
2023-02-16T03:21:08.882Z,16.28
2023-02-16T03:23:35.201Z,16.27
2023-02-16T03:26:01.622Z,16.26
2023-02-16T03:28:28.236Z,16.26
2023-02-16T03:30:54.485Z,16.24
2023-02-16T03:33:21.218Z,16.23
2023-02-16T03:35:48.228Z,16.22
2023-02-16T03:38:14.576Z,16.22
2023-02-16T03:40:40.895Z,16.20
2023-02-16T03:43:07.184Z,16.19
2023-02-16T03:45:33.871Z,16.19
2023-02-16T03:48:00.233Z,16.18
2023-02-16T03:50:26.542Z,16.16
2023-02-16T03:52:54.201Z,16.15
2023-02-16T03:55:20.565Z,16.14
2023-02-16T03:57:47.058Z,16.13
2023-02-16T04:00:13.364Z,16.12
2023-02-16T04:02:39.910Z,16.11
2023-02-16T04:05:06.272Z,16.10
2023-02-16T04:07:33.199Z,16.08
2023-02-16T04:09:59.561Z,16.07
2023-02-16T04:12:27.801Z,16.07
2023-02-16T04:14:54.071Z,16.05
2023-02-16T04:17:20.707Z,16.04
2023-02-16T04:19:47.061Z,16.03
2023-02-16T04:22:13.486Z,16.02
2023-02-16T04:24:39.911Z,16.02
2023-02-16T04:27:06.210Z,16.01
2023-02-16T04:29:32.576Z,16.01
2023-02-16T04:31:59.147Z,15.99
2023-02-16T04:34:25.451Z,15.99
2023-02-16T04:36:51.806Z,15.96
2023-02-16T04:39:18.406Z,15.96
2023-02-16T04:41:46.694Z,15.96
2023-02-16T04:44:12.982Z,15.95
2023-02-16T04:46:39.313Z,15.96
2023-02-16T04:49:05.848Z,15.97
2023-02-16T04:51:32.616Z,15.98
2023-02-16T04:53:59.065Z,16.00
2023-02-16T04:56:25.752Z,16.01
2023-02-16T05:01:42.668Z,16.05
2023-02-16T05:04:09.634Z,16.07
2023-02-16T05:06:36.049Z,16.08
2023-02-16T05:09:02.374Z,16.10
2023-02-16T05:11:29.233Z,16.11
2023-02-16T05:13:55.919Z,16.13
2023-02-16T05:16:22.535Z,16.15
2023-02-16T05:18:48.780Z,16.15
2023-02-16T05:21:15.838Z,16.17
2023-02-16T05:23:42.209Z,16.17
2023-02-16T05:26:11.598Z,16.19
2023-02-16T05:28:41.018Z,16.19
2023-02-16T05:31:08.566Z,16.21
2023-02-16T05:36:29.871Z,16.24
2023-02-16T05:38:56.163Z,16.27
2023-02-16T05:41:22.446Z,16.30
2023-02-16T05:43:48.849Z,16.33
2023-02-16T05:46:16.079Z,16.36
2023-02-16T05:48:42.526Z,16.36
2023-02-16T05:51:08.834Z,16.39
2023-02-16T05:53:36.012Z,16.40
2023-02-16T05:56:02.405Z,16.42
2023-02-16T05:58:28.807Z,16.43
2023-02-16T06:00:55.401Z,16.45
2023-02-16T06:03:23.148Z,16.48
2023-02-16T06:05:49.481Z,16.50
2023-02-16T06:08:15.881Z,16.52
2023-02-16T06:10:42.124Z,16.54
2023-02-16T06:13:08.874Z,16.56
2023-02-16T06:15:35.116Z,16.58
2023-02-16T06:18:01.533Z,16.59
2023-02-16T06:20:28.840Z,16.61
2023-02-16T06:22:55.238Z,16.63
2023-02-16T06:25:21.552Z,16.64
2023-02-16T06:27:47.812Z,16.65
2023-02-16T06:30:14.680Z,16.67
2023-02-16T06:32:41.164Z,16.69
2023-02-16T06:35:07.487Z,16.70
2023-02-16T06:37:33.808Z,16.71
2023-02-16T06:40:00.051Z,16.72
2023-02-16T06:42:27.367Z,16.74
2023-02-16T06:44:53.707Z,16.74
2023-02-16T06:47:20.132Z,16.75
2023-02-16T06:49:47.000Z,16.75
2023-02-16T06:52:14.135Z,16.76
2023-02-16T06:54:40.483Z,16.78
2023-02-16T06:57:06.758Z,16.78
2023-02-16T06:59:33.079Z,16.80
2023-02-16T07:01:59.495Z,16.80
2023-02-16T07:04:25.774Z,16.81
2023-02-16T07:06:52.054Z,16.82
2023-02-16T07:09:18.617Z,16.83
2023-02-16T07:11:45.432Z,16.84
2023-02-16T07:14:11.774Z,16.86
2023-02-16T07:16:38.277Z,16.90
2023-02-16T07:19:04.830Z,16.94
2023-02-16T07:21:31.879Z,16.97
2023-02-16T07:23:58.253Z,16.99
2023-02-16T07:26:24.802Z,17.01
2023-02-16T07:28:51.906Z,17.03
2023-02-16T07:31:18.548Z,17.07
2023-02-16T07:33:44.904Z,17.09
2023-02-16T07:36:11.359Z,17.10
2023-02-16T07:38:38.814Z,17.10
2023-02-16T07:41:08.707Z,17.11
2023-02-16T07:43:35.726Z,17.11
2023-02-16T07:46:02.557Z,17.12
2023-02-16T07:48:29.612Z,17.12
2023-02-16T07:50:55.931Z,17.12
2023-02-16T07:53:22.286Z,17.12
2023-02-16T07:55:48.970Z,17.11
2023-02-16T07:58:15.295Z,17.12
2023-02-16T08:00:41.795Z,17.12
2023-02-16T08:03:08.312Z,17.12
2023-02-16T08:05:34.675Z,17.11
2023-02-16T08:08:00.962Z,17.10
2023-02-16T08:10:27.257Z,17.10
2023-02-16T08:12:53.722Z,17.10
2023-02-16T08:15:20.404Z,17.09
2023-02-16T08:17:46.651Z,17.08
2023-02-16T08:20:13.552Z,17.08
2023-02-16T08:22:39.880Z,17.06
2023-02-16T08:25:07.163Z,17.05
2023-02-16T08:27:33.583Z,17.04
2023-02-16T08:30:00.059Z,17.02
2023-02-16T08:32:26.529Z,17.02
2023-02-16T08:34:53.151Z,17.02
2023-02-16T08:37:19.609Z,17.00
2023-02-16T08:39:46.210Z,17.00
2023-02-16T08:42:12.597Z,17.01
2023-02-16T08:44:39.015Z,17.01
2023-02-16T08:47:05.680Z,16.98
2023-02-16T08:49:32.149Z,16.99
2023-02-16T08:51:58.528Z,17.04
2023-02-16T08:54:24.871Z,17.06
2023-02-16T08:56:51.899Z,17.06
2023-02-16T08:59:18.210Z,17.05
2023-02-16T09:01:44.550Z,17.04
2023-02-16T09:04:11.828Z,17.02
2023-02-16T09:06:41.219Z,17.01
2023-02-16T09:09:08.335Z,17.02
2023-02-16T09:11:35.260Z,17.02
2023-02-16T09:14:01.568Z,17.05
2023-02-16T09:16:27.879Z,17.10
2023-02-16T09:18:54.245Z,17.16
2023-02-16T09:21:20.573Z,17.24
2023-02-16T09:23:47.697Z,17.32
2023-02-16T09:26:14.120Z,17.39
2023-02-16T09:28:40.890Z,17.37
2023-02-16T09:31:09.318Z,17.39
2023-02-16T09:33:35.785Z,17.45
2023-02-16T09:36:03.604Z,17.51
2023-02-16T09:38:32.173Z,17.53
2023-02-16T09:40:58.425Z,17.61
2023-02-16T09:43:28.774Z,17.68
2023-02-16T09:45:55.734Z,17.77
2023-02-16T09:48:22.910Z,17.83
2023-02-16T09:50:54.220Z,17.88
2023-02-16T09:53:21.056Z,17.92
2023-02-16T09:55:47.367Z,17.97
2023-02-16T09:58:13.685Z,17.99
2023-02-16T10:00:40.195Z,18.02
2023-02-16T10:03:06.792Z,18.04
2023-02-16T10:05:33.428Z,18.09
2023-02-16T10:07:59.745Z,18.15
2023-02-16T10:10:26.006Z,18.19
2023-02-16T10:12:52.571Z,18.22
2023-02-16T10:15:18.984Z,18.23
2023-02-16T10:17:45.390Z,18.22
2023-02-16T10:20:11.750Z,18.20
2023-02-16T10:22:40.979Z,18.24
2023-02-16T10:25:07.326Z,18.25
2023-02-16T10:27:33.655Z,18.27
2023-02-16T10:29:59.992Z,18.31
2023-02-16T10:32:26.389Z,18.31
2023-02-16T10:34:52.681Z,18.35
2023-02-16T10:37:18.928Z,18.38
2023-02-16T10:39:45.357Z,18.42
2023-02-16T10:42:11.811Z,18.44
2023-02-16T10:44:38.435Z,18.47
2023-02-16T10:47:05.634Z,18.48
2023-02-16T10:49:33.235Z,18.49
2023-02-16T10:51:59.825Z,18.50
2023-02-16T10:54:26.866Z,18.49
2023-02-16T10:56:53.174Z,18.48
2023-02-16T10:59:19.502Z,18.47
2023-02-16T11:01:48.008Z,18.56
2023-02-16T11:04:14.498Z,18.65
2023-02-16T11:06:41.076Z,18.66
2023-02-16T11:09:07.885Z,18.75
2023-02-16T11:11:34.123Z,18.82
2023-02-16T11:14:00.527Z,18.83
2023-02-16T11:16:27.343Z,18.81
2023-02-16T11:18:53.605Z,18.81
2023-02-16T11:21:21.020Z,18.81
2023-02-16T11:23:47.288Z,18.80
2023-02-16T11:26:13.711Z,18.79
2023-02-16T11:28:40.222Z,18.77
2023-02-16T11:31:06.870Z,18.76
2023-02-16T11:33:33.987Z,18.74
2023-02-16T11:36:01.409Z,18.71
2023-02-16T11:38:27.703Z,18.70
2023-02-16T11:40:54.184Z,18.69
2023-02-16T11:43:20.561Z,18.68
2023-02-16T11:45:47.301Z,18.70
2023-02-16T11:48:13.905Z,18.72
2023-02-16T11:50:40.408Z,18.75
2023-02-16T11:53:06.659Z,18.75
2023-02-16T11:55:33.699Z,18.78
2023-02-16T11:57:59.996Z,18.80
2023-02-16T12:00:29.577Z,18.85
2023-02-16T12:02:56.017Z,18.89
2023-02-16T12:05:22.416Z,18.90
2023-02-16T12:07:50.228Z,18.93
2023-02-16T12:10:16.494Z,18.96
2023-02-16T12:12:43.632Z,18.98
2023-02-16T12:15:09.965Z,19.02
2023-02-16T12:17:36.548Z,19.06
2023-02-16T12:20:02.818Z,19.08
2023-02-16T12:22:29.044Z,19.08
2023-02-16T12:24:55.560Z,19.21
2023-02-16T12:27:22.042Z,19.20
2023-02-16T12:29:48.717Z,19.20
2023-02-16T12:32:15.685Z,19.29
2023-02-16T12:34:42.327Z,19.33
2023-02-16T12:37:08.869Z,19.26
2023-02-16T12:39:35.282Z,19.32
2023-02-16T12:42:01.570Z,19.43
2023-02-16T12:44:28.283Z,19.43
2023-02-16T12:46:54.622Z,19.39
2023-02-16T12:49:20.852Z,19.35
2023-02-16T12:51:47.438Z,19.33
2023-02-16T12:54:14.201Z,19.35
2023-02-16T12:56:40.662Z,19.40
2023-02-16T12:59:08.255Z,19.39
2023-02-16T13:01:35.333Z,19.38
2023-02-16T13:04:01.736Z,19.39
2023-02-16T13:06:28.056Z,19.37
2023-02-16T13:08:54.526Z,19.37
2023-02-16T13:11:21.184Z,19.33
2023-02-16T13:13:48.284Z,19.30
2023-02-16T13:16:27.652Z,19.26
2023-02-16T13:18:56.017Z,19.22
2023-02-16T13:21:22.318Z,19.27
2023-02-16T13:23:48.592Z,19.34
2023-02-16T13:26:14.930Z,19.34
2023-02-16T13:28:41.766Z,19.28
2023-02-16T13:31:11.197Z,19.22
2023-02-16T13:33:37.764Z,19.17
2023-02-16T13:36:04.550Z,19.14
2023-02-16T13:38:31.144Z,19.12
2023-02-16T13:40:57.510Z,19.12
2023-02-16T13:43:24.162Z,19.09
2023-02-16T13:45:51.298Z,19.08
2023-02-16T13:48:17.836Z,19.05
2023-02-16T13:50:44.158Z,19.02
2023-02-16T13:53:10.946Z,19.00
2023-02-16T13:55:38.345Z,18.98
2023-02-16T13:58:04.719Z,18.96
2023-02-16T14:00:31.147Z,18.91
2023-02-16T14:02:57.448Z,18.90
2023-02-16T14:05:23.715Z,18.88
2023-02-16T14:07:50.765Z,18.86
2023-02-16T14:10:17.181Z,18.84
2023-02-16T14:12:43.650Z,18.82
2023-02-16T14:15:10.141Z,18.80
2023-02-16T14:17:36.748Z,18.79
2023-02-16T14:22:47.425Z,18.74
2023-02-16T14:25:13.783Z,18.73
2023-02-16T14:27:40.269Z,18.71
2023-02-16T14:30:06.599Z,18.70
2023-02-16T14:32:32.975Z,18.70
2023-02-16T14:34:59.427Z,18.68
2023-02-16T14:37:25.844Z,18.67
2023-02-16T14:40:07.307Z,18.67
2023-02-16T14:42:34.380Z,18.66
2023-02-16T14:45:01.126Z,18.64
2023-02-16T14:47:29.121Z,18.65
2023-02-16T14:49:55.940Z,18.63
2023-02-16T14:52:22.627Z,18.62
2023-02-16T14:54:49.802Z,18.60
2023-02-16T14:57:17.239Z,18.59
2023-02-16T14:59:43.937Z,18.57
2023-02-16T15:02:11.231Z,18.55
2023-02-16T15:04:37.978Z,18.52
2023-02-16T15:07:05.997Z,18.50
2023-02-16T15:09:32.280Z,18.48
2023-02-16T15:11:58.598Z,18.47
2023-02-16T15:14:25.028Z,18.45
2023-02-16T15:16:51.318Z,18.42
2023-02-16T15:19:18.274Z,18.41
2023-02-16T15:21:44.571Z,18.39
2023-02-16T15:24:11.596Z,18.37
2023-02-16T15:26:38.189Z,18.34
2023-02-16T15:29:04.834Z,18.32
2023-02-16T15:31:31.308Z,18.31
2023-02-16T15:33:57.913Z,18.29
2023-02-16T15:36:24.271Z,18.27
2023-02-16T15:38:51.409Z,18.25
2023-02-16T15:41:18.606Z,18.23
2023-02-16T15:43:44.922Z,18.20
2023-02-16T15:46:11.701Z,18.18
2023-02-16T15:48:42.770Z,18.17
2023-02-16T15:51:09.811Z,18.15
2023-02-16T15:53:37.149Z,18.14
2023-02-16T15:56:03.782Z,18.13
2023-02-16T15:58:32.781Z,18.12
2023-02-16T16:00:59.210Z,18.09
2023-02-16T16:03:25.976Z,18.08
2023-02-16T16:05:52.374Z,18.07
2023-02-16T16:08:18.730Z,18.05
2023-02-16T16:10:45.332Z,18.05
2023-02-16T16:13:11.639Z,18.04
2023-02-16T16:15:38.764Z,18.04
2023-02-16T16:18:05.036Z,18.05
2023-02-16T16:20:31.386Z,18.05
2023-02-16T16:22:58.350Z,18.07
2023-02-16T16:25:25.011Z,18.09
2023-02-16T16:27:51.852Z,18.10
2023-02-16T16:30:18.170Z,18.10
2023-02-16T16:32:45.137Z,18.11
2023-02-16T16:35:11.485Z,18.06
2023-02-16T16:37:37.854Z,18.12
2023-02-16T16:40:04.313Z,18.12
2023-02-16T16:42:30.671Z,18.12
2023-02-16T16:44:57.010Z,18.11
2023-02-16T16:47:23.389Z,18.11
2023-02-16T16:49:49.749Z,18.12
2023-02-16T16:52:16.283Z,18.11
2023-02-16T16:54:42.587Z,18.12
2023-02-16T16:57:08.905Z,18.12
2023-02-16T16:59:35.919Z,18.11
2023-02-16T17:02:05.444Z,18.12
2023-02-16T17:04:32.174Z,18.13
2023-02-16T17:06:58.734Z,18.13
2023-02-16T17:09:24.983Z,18.13
2023-02-16T17:11:52.112Z,18.14
2023-02-16T17:14:18.576Z,18.13
2023-02-16T17:16:44.937Z,18.12
2023-02-16T17:19:11.314Z,18.13
2023-02-16T17:21:38.418Z,18.11
2023-02-16T17:24:04.749Z,18.13
2023-02-16T17:26:31.133Z,18.13
2023-02-16T17:28:58.330Z,18.14
2023-02-16T17:31:24.773Z,18.15
2023-02-16T17:33:51.467Z,18.15
2023-02-16T17:36:17.814Z,18.15
2023-02-16T17:38:46.482Z,18.15
2023-02-16T17:41:13.208Z,18.16
2023-02-16T17:43:39.871Z,18.17
2023-02-16T17:46:07.271Z,18.15
2023-02-16T17:48:34.311Z,18.16
2023-02-16T17:51:01.037Z,18.16
2023-02-16T17:53:28.326Z,18.17
2023-02-16T17:55:54.698Z,18.15
2023-02-16T17:58:21.750Z,18.17
2023-02-16T18:00:48.802Z,18.17
2023-02-16T18:03:15.287Z,18.16
2023-02-16T18:05:41.527Z,18.16
2023-02-16T18:08:08.187Z,18.15
2023-02-16T18:10:34.514Z,18.15
2023-02-16T18:13:01.296Z,18.14
2023-02-16T18:15:27.668Z,18.13
2023-02-16T18:17:55.465Z,18.11
2023-02-16T18:20:22.198Z,18.12
2023-02-16T18:22:48.581Z,18.11
2023-02-16T18:25:15.324Z,18.09
2023-02-16T18:27:41.836Z,18.08
2023-02-16T18:30:08.388Z,18.06
2023-02-16T18:32:34.807Z,18.05
2023-02-16T18:35:01.660Z,18.04
2023-02-16T18:37:29.254Z,18.03
2023-02-16T18:39:55.506Z,18.03
2023-02-16T18:42:21.772Z,18.03
2023-02-16T18:44:48.095Z,18.03
2023-02-16T18:47:14.964Z,18.02
2023-02-16T18:49:41.889Z,18.02
2023-02-16T18:52:08.390Z,18.01
2023-02-16T18:54:34.801Z,18.02
2023-02-16T18:57:01.253Z,18.01
2023-02-16T18:59:28.303Z,18.00
2023-02-16T19:01:54.626Z,18.01
2023-02-16T19:04:21.893Z,18.00
2023-02-16T19:06:51.153Z,18.02
2023-02-16T19:09:18.394Z,18.04
2023-02-16T19:11:44.737Z,18.04
2023-02-16T19:14:10.999Z,18.05
2023-02-16T19:16:37.447Z,18.05
2023-02-16T19:19:03.964Z,18.05
2023-02-16T19:21:30.671Z,18.06
2023-02-16T19:23:56.991Z,18.06
2023-02-16T19:26:23.345Z,18.07
2023-02-16T19:28:52.614Z,18.06
2023-02-16T19:31:19.139Z,18.07
2023-02-16T19:33:45.415Z,18.06
2023-02-16T19:36:11.660Z,18.06
2023-02-16T19:38:38.864Z,18.07
2023-02-16T19:41:05.115Z,18.06
2023-02-16T19:43:31.437Z,18.06
2023-02-16T19:45:57.752Z,18.06
2023-02-16T19:48:26.065Z,18.06
2023-02-16T19:50:52.729Z,18.06
2023-02-16T19:53:19.044Z,18.06
2023-02-16T19:55:46.270Z,18.06
2023-02-16T19:58:13.320Z,18.05
2023-02-16T20:00:39.610Z,18.03
2023-02-16T20:03:09.081Z,18.03
2023-02-16T20:05:35.490Z,18.03
2023-02-16T20:08:01.817Z,18.02
2023-02-16T20:10:28.486Z,17.99
2023-02-16T20:12:55.279Z,17.98
2023-02-16T20:15:21.646Z,17.97
2023-02-16T20:17:47.950Z,17.97
2023-02-16T20:20:14.700Z,17.96
2023-02-16T20:22:41.687Z,17.97
2023-02-16T20:25:08.019Z,17.97
2023-02-16T20:27:34.345Z,17.97
2023-02-16T20:30:00.882Z,17.97
2023-02-16T20:32:27.246Z,17.96
2023-02-16T20:34:53.530Z,17.96
2023-02-16T20:37:19.916Z,17.97
2023-02-16T20:39:47.362Z,17.98
2023-02-16T20:42:14.324Z,17.99
2023-02-16T20:44:40.584Z,17.99
2023-02-16T20:47:07.356Z,17.99
2023-02-16T20:49:35.097Z,18.01
2023-02-16T20:52:01.509Z,17.99
2023-02-16T20:54:28.945Z,18.01
2023-02-16T20:56:55.447Z,17.99
2023-02-16T20:59:21.740Z,18.01
2023-02-16T21:01:51.112Z,17.99
2023-02-16T21:04:18.482Z,17.99
2023-02-16T21:06:44.749Z,17.98
2023-02-16T21:09:11.084Z,17.98
2023-02-16T21:11:37.482Z,17.97
2023-02-16T21:14:03.862Z,17.97
2023-02-16T21:16:30.297Z,17.96
2023-02-16T21:18:56.958Z,17.96
2023-02-16T21:21:23.941Z,17.94
2023-02-16T21:23:50.301Z,17.94
2023-02-16T21:26:20.163Z,17.94
2023-02-16T21:28:46.510Z,17.94
2023-02-16T21:31:13.649Z,17.92
2023-02-16T21:33:40.673Z,17.92
2023-02-16T21:36:07.248Z,17.92
2023-02-16T21:38:33.929Z,17.92
2023-02-16T21:41:00.469Z,17.91
2023-02-16T21:43:29.444Z,17.91
2023-02-16T21:45:55.858Z,17.92
2023-02-16T21:48:22.262Z,17.91
2023-02-16T21:50:48.839Z,17.91
2023-02-16T21:53:15.479Z,17.91
2023-02-16T21:55:45.747Z,17.91
2023-02-16T21:58:12.068Z,17.90
2023-02-16T22:00:38.665Z,17.90
2023-02-16T22:03:05.932Z,17.89
2023-02-16T22:05:33.633Z,17.88
2023-02-16T22:08:00.045Z,17.89
2023-02-16T22:10:26.391Z,17.88
2023-02-16T22:12:52.744Z,17.89
2023-02-16T22:15:19.371Z,17.88
2023-02-16T22:17:46.198Z,17.87
2023-02-16T22:20:12.497Z,17.86
2023-02-16T22:22:38.889Z,17.85
2023-02-16T22:25:05.198Z,17.84
2023-02-16T22:27:32.746Z,17.85
2023-02-16T22:29:59.036Z,17.84
2023-02-16T22:32:25.855Z,17.83
2023-02-16T22:34:52.835Z,17.82
2023-02-16T22:37:19.716Z,17.81
2023-02-16T22:39:46.126Z,17.81
2023-02-16T22:42:12.394Z,17.80
2023-02-16T22:44:38.996Z,17.79
2023-02-16T22:47:06.260Z,17.79
2023-02-16T22:49:32.519Z,17.77
2023-02-16T22:51:58.900Z,17.76
2023-02-16T22:54:25.212Z,17.75
2023-02-16T22:56:51.587Z,17.75
2023-02-16T22:59:19.249Z,17.74
2023-02-16T23:01:45.542Z,17.73
2023-02-16T23:04:11.975Z,17.72
2023-02-16T23:06:38.751Z,17.71
2023-02-16T23:09:05.161Z,17.71
2023-02-16T23:11:31.599Z,17.70
2023-02-16T23:13:57.998Z,17.68
2023-02-16T23:16:24.361Z,17.67
2023-02-16T23:18:51.554Z,17.66
2023-02-16T23:21:18.999Z,17.64
2023-02-16T23:23:47.209Z,17.64
2023-02-16T23:29:06.175Z,17.61
2023-02-16T23:31:32.989Z,17.61
2023-02-16T23:34:02.163Z,17.59
2023-02-16T23:36:29.117Z,17.57
2023-02-16T23:38:56.819Z,17.57
2023-02-16T23:41:23.704Z,17.57
2023-02-16T23:43:50.902Z,17.56
2023-02-16T23:46:17.634Z,17.56
2023-02-16T23:48:44.103Z,17.55
2023-02-16T23:51:12.165Z,17.54
2023-02-16T23:53:38.707Z,17.53
2023-02-16T23:56:05.470Z,17.52
2023-02-16T23:58:32.156Z,17.52
